sensor_id;sensor_type;location;lat;lon;timestamp;P1;durP1;ratioP1;P2;durP2;ratioP2
22660;SDS011;11497;52.222;21.246;2022-09-12T00:01:18;10.75;;;4.72;;
22660;SDS011;11497;52.222;21.246;2022-09-12T00:03:54;9.27;;;4.40;;
22660;SDS011;11497;52.222;21.246;2022-09-12T00:06:25;9.88;;;4.40;;
22660;SDS011;11497;52.222;21.246;2022-09-12T00:08:56;6.85;;;4.45;;
22660;SDS011;11497;52.222;21.246;2022-09-12T00:11:25;12.88;;;4.60;;
22660;SDS011;11497;52.222;21.246;2022-09-12T00:13:57;6.93;;;4.43;;
22660;SDS011;11497;52.222;21.246;2022-09-12T00:16:28;12.82;;;4.40;;
22660;SDS011;11497;52.222;21.246;2022-09-12T00:18:58;6.93;;;4.25;;
22660;SDS011;11497;52.222;21.246;2022-09-12T00:21:27;5.97;;;4.10;;
22660;SDS011;11497;52.222;21.246;2022-09-12T00:23:55;8.70;;;4.25;;
22660;SDS011;11497;52.222;21.246;2022-09-12T00:26:22;6.70;;;4.53;;
22660;SDS011;11497;52.222;21.246;2022-09-12T00:28:50;7.00;;;4.45;;
22660;SDS011;11497;52.222;21.246;2022-09-12T00:31:19;5.88;;;4.50;;
22660;SDS011;11497;52.222;21.246;2022-09-12T00:33:53;5.78;;;4.00;;
22660;SDS011;11497;52.222;21.246;2022-09-12T00:36:24;10.82;;;4.88;;
22660;SDS011;11497;52.222;21.246;2022-09-12T00:38:53;6.80;;;4.07;;
22660;SDS011;11497;52.222;21.246;2022-09-12T00:41:23;5.45;;;4.00;;
22660;SDS011;11497;52.222;21.246;2022-09-12T00:43:54;8.70;;;4.55;;
22660;SDS011;11497;52.222;21.246;2022-09-12T00:46:42;5.57;;;3.90;;
22660;SDS011;11497;52.222;21.246;2022-09-12T00:49:14;6.25;;;4.30;;
22660;SDS011;11497;52.222;21.246;2022-09-12T00:54:24;6.22;;;4.40;;
22660;SDS011;11497;52.222;21.246;2022-09-12T00:56:57;7.95;;;4.50;;
22660;SDS011;11497;52.222;21.246;2022-09-12T00:59:33;8.32;;;4.07;;
22660;SDS011;11497;52.222;21.246;2022-09-12T01:02:13;8.18;;;4.18;;
22660;SDS011;11497;52.222;21.246;2022-09-12T01:04:42;5.90;;;4.25;;
22660;SDS011;11497;52.222;21.246;2022-09-12T01:07:10;6.85;;;4.60;;
22660;SDS011;11497;52.222;21.246;2022-09-12T01:09:40;6.22;;;4.03;;
22660;SDS011;11497;52.222;21.246;2022-09-12T01:12:11;9.30;;;4.60;;
22660;SDS011;11497;52.222;21.246;2022-09-12T01:14:40;8.88;;;4.18;;
22660;SDS011;11497;52.222;21.246;2022-09-12T01:17:14;9.25;;;4.82;;
22660;SDS011;11497;52.222;21.246;2022-09-12T01:34:40;10.73;;;5.07;;
22660;SDS011;11497;52.222;21.246;2022-09-12T01:37:28;10.30;;;4.68;;
22660;SDS011;11497;52.222;21.246;2022-09-12T01:40:30;8.13;;;4.97;;
22660;SDS011;11497;52.222;21.246;2022-09-12T01:48:55;9.23;;;4.43;;
22660;SDS011;11497;52.222;21.246;2022-09-12T01:51:38;8.38;;;4.38;;
22660;SDS011;11497;52.222;21.246;2022-09-12T01:57:12;5.60;;;4.30;;
22660;SDS011;11497;52.222;21.246;2022-09-12T02:00:05;10.57;;;4.88;;
22660;SDS011;11497;52.222;21.246;2022-09-12T02:02:47;7.22;;;4.70;;
22660;SDS011;11497;52.222;21.246;2022-09-12T02:05:30;7.97;;;5.07;;
22660;SDS011;11497;52.222;21.246;2022-09-12T02:08:06;9.77;;;4.75;;
22660;SDS011;11497;52.222;21.246;2022-09-12T02:10:48;10.70;;;4.68;;
22660;SDS011;11497;52.222;21.246;2022-09-12T02:13:31;7.75;;;4.72;;
22660;SDS011;11497;52.222;21.246;2022-09-12T02:16:22;12.63;;;4.50;;
22660;SDS011;11497;52.222;21.246;2022-09-12T02:18:56;7.38;;;4.68;;
22660;SDS011;11497;52.222;21.246;2022-09-12T02:21:32;11.75;;;5.47;;
22660;SDS011;11497;52.222;21.246;2022-09-12T02:24:05;10.80;;;4.95;;
22660;SDS011;11497;52.222;21.246;2022-09-12T02:26:54;8.27;;;4.63;;
22660;SDS011;11497;52.222;21.246;2022-09-12T02:29:25;6.63;;;4.40;;
22660;SDS011;11497;52.222;21.246;2022-09-12T02:31:53;13.15;;;5.07;;
22660;SDS011;11497;52.222;21.246;2022-09-12T02:34:31;12.10;;;4.68;;
22660;SDS011;11497;52.222;21.246;2022-09-12T02:39:57;7.40;;;4.30;;
22660;SDS011;11497;52.222;21.246;2022-09-12T02:42:26;8.23;;;4.60;;
22660;SDS011;11497;52.222;21.246;2022-09-12T02:44:54;6.75;;;4.78;;
22660;SDS011;11497;52.222;21.246;2022-09-12T02:47:25;6.85;;;4.75;;
22660;SDS011;11497;52.222;21.246;2022-09-12T02:49:55;6.63;;;4.63;;
22660;SDS011;11497;52.222;21.246;2022-09-12T02:52:24;6.95;;;4.60;;
22660;SDS011;11497;52.222;21.246;2022-09-12T02:54:53;5.63;;;4.30;;
22660;SDS011;11497;52.222;21.246;2022-09-12T02:57:24;8.95;;;4.53;;
22660;SDS011;11497;52.222;21.246;2022-09-12T02:59:52;7.72;;;4.20;;
22660;SDS011;11497;52.222;21.246;2022-09-12T03:05:23;9.65;;;4.45;;
22660;SDS011;11497;52.222;21.246;2022-09-12T03:14:04;10.55;;;4.50;;
22660;SDS011;11497;52.222;21.246;2022-09-12T03:25:26;7.97;;;4.68;;
22660;SDS011;11497;52.222;21.246;2022-09-12T03:28:14;10.07;;;4.53;;
22660;SDS011;11497;52.222;21.246;2022-09-12T03:30:44;8.82;;;4.78;;
22660;SDS011;11497;52.222;21.246;2022-09-12T03:33:15;5.35;;;4.30;;
22660;SDS011;11497;52.222;21.246;2022-09-12T03:35:44;10.73;;;5.15;;
22660;SDS011;11497;52.222;21.246;2022-09-12T03:38:13;7.07;;;4.40;;
22660;SDS011;11497;52.222;21.246;2022-09-12T03:40:41;9.65;;;4.57;;
22660;SDS011;11497;52.222;21.246;2022-09-12T03:43:10;8.75;;;4.63;;
22660;SDS011;11497;52.222;21.246;2022-09-12T03:45:38;9.20;;;4.82;;
22660;SDS011;11497;52.222;21.246;2022-09-12T03:48:06;6.70;;;4.60;;
22660;SDS011;11497;52.222;21.246;2022-09-12T03:50:34;5.88;;;4.57;;
22660;SDS011;11497;52.222;21.246;2022-09-12T03:53:02;8.73;;;5.10;;
22660;SDS011;11497;52.222;21.246;2022-09-12T03:55:30;8.75;;;4.60;;
22660;SDS011;11497;52.222;21.246;2022-09-12T03:57:58;8.18;;;4.88;;
22660;SDS011;11497;52.222;21.246;2022-09-12T04:00:26;8.63;;;4.65;;
22660;SDS011;11497;52.222;21.246;2022-09-12T04:02:54;11.00;;;4.95;;
22660;SDS011;11497;52.222;21.246;2022-09-12T04:05:23;6.30;;;4.80;;
22660;SDS011;11497;52.222;21.246;2022-09-12T04:07:52;7.45;;;4.43;;
22660;SDS011;11497;52.222;21.246;2022-09-12T04:10:19;9.95;;;4.88;;
22660;SDS011;11497;52.222;21.246;2022-09-12T04:12:48;8.63;;;4.80;;
22660;SDS011;11497;52.222;21.246;2022-09-12T04:15:16;7.88;;;5.25;;
22660;SDS011;11497;52.222;21.246;2022-09-12T04:17:43;6.90;;;4.60;;
22660;SDS011;11497;52.222;21.246;2022-09-12T04:20:11;6.68;;;4.88;;
22660;SDS011;11497;52.222;21.246;2022-09-12T04:22:39;6.00;;;4.47;;
22660;SDS011;11497;52.222;21.246;2022-09-12T04:25:07;7.78;;;5.10;;
22660;SDS011;11497;52.222;21.246;2022-09-12T04:27:35;10.35;;;5.28;;
22660;SDS011;11497;52.222;21.246;2022-09-12T04:30:03;7.70;;;4.93;;
22660;SDS011;11497;52.222;21.246;2022-09-12T04:32:32;6.60;;;5.18;;
22660;SDS011;11497;52.222;21.246;2022-09-12T04:35:00;8.65;;;5.50;;
22660;SDS011;11497;52.222;21.246;2022-09-12T04:37:27;7.90;;;5.28;;
22660;SDS011;11497;52.222;21.246;2022-09-12T04:39:55;9.65;;;5.68;;
22660;SDS011;11497;52.222;21.246;2022-09-12T04:42:24;10.85;;;5.60;;
22660;SDS011;11497;52.222;21.246;2022-09-12T04:44:53;9.57;;;5.57;;
22660;SDS011;11497;52.222;21.246;2022-09-12T04:47:20;10.02;;;6.38;;
22660;SDS011;11497;52.222;21.246;2022-09-12T04:49:48;10.13;;;6.00;;
22660;SDS011;11497;52.222;21.246;2022-09-12T04:52:17;9.07;;;5.90;;
22660;SDS011;11497;52.222;21.246;2022-09-12T04:54:44;11.18;;;6.60;;
22660;SDS011;11497;52.222;21.246;2022-09-12T04:57:12;9.55;;;5.82;;
22660;SDS011;11497;52.222;21.246;2022-09-12T04:59:40;11.57;;;6.75;;
22660;SDS011;11497;52.222;21.246;2022-09-12T05:02:08;11.00;;;6.78;;
22660;SDS011;11497;52.222;21.246;2022-09-12T05:04:36;14.65;;;7.18;;
22660;SDS011;11497;52.222;21.246;2022-09-12T05:07:04;16.05;;;7.20;;
22660;SDS011;11497;52.222;21.246;2022-09-12T05:09:32;13.60;;;7.05;;
22660;SDS011;11497;52.222;21.246;2022-09-12T05:12:00;12.15;;;8.15;;
22660;SDS011;11497;52.222;21.246;2022-09-12T05:14:32;13.45;;;7.78;;
22660;SDS011;11497;52.222;21.246;2022-09-12T05:17:00;14.80;;;7.80;;
22660;SDS011;11497;52.222;21.246;2022-09-12T05:19:29;13.82;;;8.60;;
22660;SDS011;11497;52.222;21.246;2022-09-12T05:21:58;17.30;;;9.23;;
22660;SDS011;11497;52.222;21.246;2022-09-12T05:24:26;14.02;;;8.60;;
22660;SDS011;11497;52.222;21.246;2022-09-12T05:26:54;20.30;;;9.68;;
22660;SDS011;11497;52.222;21.246;2022-09-12T05:29:21;16.67;;;9.35;;
22660;SDS011;11497;52.222;21.246;2022-09-12T05:31:50;19.95;;;9.65;;
22660;SDS011;11497;52.222;21.246;2022-09-12T05:34:19;13.32;;;10.07;;
22660;SDS011;11497;52.222;21.246;2022-09-12T05:36:47;17.70;;;10.25;;
22660;SDS011;11497;52.222;21.246;2022-09-12T05:39:15;14.93;;;10.38;;
22660;SDS011;11497;52.222;21.246;2022-09-12T05:41:44;14.10;;;10.40;;
22660;SDS011;11497;52.222;21.246;2022-09-12T05:44:13;15.27;;;10.93;;
22660;SDS011;11497;52.222;21.246;2022-09-12T05:46:42;15.57;;;10.38;;
22660;SDS011;11497;52.222;21.246;2022-09-12T05:49:14;18.02;;;10.73;;
22660;SDS011;11497;52.222;21.246;2022-09-12T05:51:42;14.05;;;10.40;;
22660;SDS011;11497;52.222;21.246;2022-09-12T05:54:13;16.00;;;10.85;;
22660;SDS011;11497;52.222;21.246;2022-09-12T05:56:44;14.18;;;10.27;;
22660;SDS011;11497;52.222;21.246;2022-09-12T05:59:17;16.77;;;10.25;;
22660;SDS011;11497;52.222;21.246;2022-09-12T06:01:46;20.27;;;10.65;;
22660;SDS011;11497;52.222;21.246;2022-09-12T06:04:15;11.63;;;9.85;;
22660;SDS011;11497;52.222;21.246;2022-09-12T06:06:43;15.68;;;10.40;;
22660;SDS011;11497;52.222;21.246;2022-09-12T06:09:13;14.27;;;9.70;;
22660;SDS011;11497;52.222;21.246;2022-09-12T06:11:43;13.32;;;10.07;;
22660;SDS011;11497;52.222;21.246;2022-09-12T06:14:13;15.52;;;10.35;;
22660;SDS011;11497;52.222;21.246;2022-09-12T06:16:42;14.80;;;9.63;;
22660;SDS011;11497;52.222;21.246;2022-09-12T06:19:14;12.52;;;8.77;;
22660;SDS011;11497;52.222;21.246;2022-09-12T06:21:43;17.13;;;9.70;;
22660;SDS011;11497;52.222;21.246;2022-09-12T06:24:15;15.48;;;10.02;;
22660;SDS011;11497;52.222;21.246;2022-09-12T06:26:45;12.88;;;8.80;;
22660;SDS011;11497;52.222;21.246;2022-09-12T06:29:14;11.70;;;9.30;;
22660;SDS011;11497;52.222;21.246;2022-09-12T06:31:42;13.52;;;8.82;;
22660;SDS011;11497;52.222;21.246;2022-09-12T06:34:11;13.18;;;8.30;;
22660;SDS011;11497;52.222;21.246;2022-09-12T06:36:43;15.70;;;8.80;;
22660;SDS011;11497;52.222;21.246;2022-09-12T06:39:16;11.95;;;9.13;;
22660;SDS011;11497;52.222;21.246;2022-09-12T06:41:47;11.00;;;8.50;;
22660;SDS011;11497;52.222;21.246;2022-09-12T06:44:18;11.48;;;8.23;;
22660;SDS011;11497;52.222;21.246;2022-09-12T06:46:48;13.40;;;8.50;;
22660;SDS011;11497;52.222;21.246;2022-09-12T06:49:16;14.10;;;8.13;;
22660;SDS011;11497;52.222;21.246;2022-09-12T06:51:44;13.25;;;8.07;;
22660;SDS011;11497;52.222;21.246;2022-09-12T06:54:12;12.00;;;7.80;;
22660;SDS011;11497;52.222;21.246;2022-09-12T06:56:43;18.13;;;8.77;;
22660;SDS011;11497;52.222;21.246;2022-09-12T06:59:11;12.68;;;9.23;;
22660;SDS011;11497;52.222;21.246;2022-09-12T07:01:39;12.85;;;10.05;;
22660;SDS011;11497;52.222;21.246;2022-09-12T07:04:07;12.27;;;9.27;;
22660;SDS011;11497;52.222;21.246;2022-09-12T07:06:37;9.02;;;8.10;;
22660;SDS011;11497;52.222;21.246;2022-09-12T07:09:08;12.18;;;8.52;;
22660;SDS011;11497;52.222;21.246;2022-09-12T07:11:39;12.25;;;8.70;;
22660;SDS011;11497;52.222;21.246;2022-09-12T07:14:08;13.90;;;7.55;;
22660;SDS011;11497;52.222;21.246;2022-09-12T07:16:38;11.02;;;7.93;;
22660;SDS011;11497;52.222;21.246;2022-09-12T07:19:07;11.02;;;7.10;;
22660;SDS011;11497;52.222;21.246;2022-09-12T07:21:36;10.32;;;7.47;;
22660;SDS011;11497;52.222;21.246;2022-09-12T07:24:08;8.43;;;7.38;;
22660;SDS011;11497;52.222;21.246;2022-09-12T07:26:38;10.27;;;7.38;;
22660;SDS011;11497;52.222;21.246;2022-09-12T07:29:11;11.52;;;7.35;;
22660;SDS011;11497;52.222;21.246;2022-09-12T07:32:04;11.05;;;6.80;;
22660;SDS011;11497;52.222;21.246;2022-09-12T07:34:32;12.00;;;7.28;;
22660;SDS011;11497;52.222;21.246;2022-09-12T07:37:01;10.65;;;7.50;;
22660;SDS011;11497;52.222;21.246;2022-09-12T07:39:29;8.35;;;6.82;;
22660;SDS011;11497;52.222;21.246;2022-09-12T07:41:58;10.85;;;6.95;;
22660;SDS011;11497;52.222;21.246;2022-09-12T07:44:28;11.80;;;6.53;;
22660;SDS011;11497;52.222;21.246;2022-09-12T07:46:56;12.13;;;6.63;;
22660;SDS011;11497;52.222;21.246;2022-09-12T07:49:23;8.57;;;6.65;;
22660;SDS011;11497;52.222;21.246;2022-09-12T07:51:51;10.13;;;7.10;;
22660;SDS011;11497;52.222;21.246;2022-09-12T07:54:19;9.43;;;6.22;;
22660;SDS011;11497;52.222;21.246;2022-09-12T07:56:47;8.90;;;6.40;;
22660;SDS011;11497;52.222;21.246;2022-09-12T07:59:15;9.98;;;6.53;;
22660;SDS011;11497;52.222;21.246;2022-09-12T08:02:03;11.60;;;7.30;;
22660;SDS011;11497;52.222;21.246;2022-09-12T08:04:30;9.95;;;6.70;;
22660;SDS011;11497;52.222;21.246;2022-09-12T08:06:58;8.20;;;6.63;;
22660;SDS011;11497;52.222;21.246;2022-09-12T08:09:26;10.77;;;7.22;;
22660;SDS011;11497;52.222;21.246;2022-09-12T08:11:54;9.55;;;7.50;;
22660;SDS011;11497;52.222;21.246;2022-09-12T08:14:22;14.57;;;7.03;;
22660;SDS011;11497;52.222;21.246;2022-09-12T08:16:50;11.65;;;7.60;;
22660;SDS011;11497;52.222;21.246;2022-09-12T08:19:17;13.60;;;6.80;;
22660;SDS011;11497;52.222;21.246;2022-09-12T08:21:48;9.20;;;6.72;;
22660;SDS011;11497;52.222;21.246;2022-09-12T08:24:16;10.13;;;7.22;;
22660;SDS011;11497;52.222;21.246;2022-09-12T08:26:43;13.13;;;7.30;;
22660;SDS011;11497;52.222;21.246;2022-09-12T08:29:11;10.43;;;7.72;;
22660;SDS011;11497;52.222;21.246;2022-09-12T08:31:39;11.27;;;7.45;;
22660;SDS011;11497;52.222;21.246;2022-09-12T08:34:08;10.55;;;7.53;;
22660;SDS011;11497;52.222;21.246;2022-09-12T08:36:36;11.38;;;7.38;;
22660;SDS011;11497;52.222;21.246;2022-09-12T08:39:05;12.85;;;7.40;;
22660;SDS011;11497;52.222;21.246;2022-09-12T08:41:35;11.05;;;7.40;;
22660;SDS011;11497;52.222;21.246;2022-09-12T08:58:13;14.90;;;6.25;;
22660;SDS011;11497;52.222;21.246;2022-09-12T09:01:04;9.23;;;6.22;;
22660;SDS011;11497;52.222;21.246;2022-09-12T09:06:24;10.80;;;6.80;;
22660;SDS011;11497;52.222;21.246;2022-09-12T09:11:44;8.27;;;6.22;;
22660;SDS011;11497;52.222;21.246;2022-09-12T09:17:45;8.23;;;6.07;;
22660;SDS011;11497;52.222;21.246;2022-09-12T09:23:13;10.23;;;5.82;;
22660;SDS011;11497;52.222;21.246;2022-09-12T09:25:57;8.43;;;5.57;;
22660;SDS011;11497;52.222;21.246;2022-09-12T09:28:32;10.30;;;5.65;;
22660;SDS011;11497;52.222;21.246;2022-09-12T09:31:11;8.65;;;5.18;;
22660;SDS011;11497;52.222;21.246;2022-09-12T09:33:42;8.43;;;5.95;;
22660;SDS011;11497;52.222;21.246;2022-09-12T09:44:12;10.82;;;5.70;;
22660;SDS011;11497;52.222;21.246;2022-09-12T09:46:40;11.57;;;5.60;;
22660;SDS011;11497;52.222;21.246;2022-09-12T09:49:10;13.05;;;5.93;;
22660;SDS011;11497;52.222;21.246;2022-09-12T09:51:40;10.60;;;6.55;;
22660;SDS011;11497;52.222;21.246;2022-09-12T09:56:54;7.43;;;5.72;;
22660;SDS011;11497;52.222;21.246;2022-09-12T10:01:54;8.38;;;5.40;;
22660;SDS011;11497;52.222;21.246;2022-09-12T10:04:26;8.15;;;5.35;;
22660;SDS011;11497;52.222;21.246;2022-09-12T10:06:57;7.88;;;4.97;;
22660;SDS011;11497;52.222;21.246;2022-09-12T10:09:29;8.18;;;5.20;;
22660;SDS011;11497;52.222;21.246;2022-09-12T10:14:57;6.47;;;5.13;;
22660;SDS011;11497;52.222;21.246;2022-09-12T10:17:29;7.85;;;4.97;;
22660;SDS011;11497;52.222;21.246;2022-09-12T10:20:02;10.55;;;6.40;;
22660;SDS011;11497;52.222;21.246;2022-09-12T10:22:48;10.55;;;6.40;;
22660;SDS011;11497;52.222;21.246;2022-09-12T10:25:16;10.52;;;6.72;;
22660;SDS011;11497;52.222;21.246;2022-09-12T10:27:51;10.85;;;7.00;;
22660;SDS011;11497;52.222;21.246;2022-09-12T10:30:22;13.10;;;5.80;;
22660;SDS011;11497;52.222;21.246;2022-09-12T10:32:51;8.75;;;5.78;;
22660;SDS011;11497;52.222;21.246;2022-09-12T10:35:24;10.00;;;5.80;;
22660;SDS011;11497;52.222;21.246;2022-09-12T10:37:57;9.77;;;5.35;;
22660;SDS011;11497;52.222;21.246;2022-09-12T10:40:37;11.48;;;6.40;;
22660;SDS011;11497;52.222;21.246;2022-09-12T10:43:15;12.25;;;6.63;;
22660;SDS011;11497;52.222;21.246;2022-09-12T10:45:55;11.53;;;7.23;;
22660;SDS011;11497;52.222;21.246;2022-09-12T10:48:28;10.25;;;6.90;;
22660;SDS011;11497;52.222;21.246;2022-09-12T10:50:58;6.47;;;4.82;;
22660;SDS011;11497;52.222;21.246;2022-09-12T10:53:28;7.45;;;5.38;;
22660;SDS011;11497;52.222;21.246;2022-09-12T10:56:08;10.00;;;5.13;;
22660;SDS011;11497;52.222;21.246;2022-09-12T11:16:13;7.07;;;4.97;;
22660;SDS011;11497;52.222;21.246;2022-09-12T11:19:24;14.35;;;5.13;;
22660;SDS011;11497;52.222;21.246;2022-09-12T11:30:08;6.70;;;4.70;;
22660;SDS011;11497;52.222;21.246;2022-09-12T11:32:45;6.97;;;4.95;;
22660;SDS011;11497;52.222;21.246;2022-09-12T11:35:32;7.13;;;4.90;;
22660;SDS011;11497;52.222;21.246;2022-09-12T11:38:18;5.57;;;4.30;;
22660;SDS011;11497;52.222;21.246;2022-09-12T11:41:14;7.63;;;4.60;;
22660;SDS011;11497;52.222;21.246;2022-09-12T11:43:52;11.27;;;4.72;;
22660;SDS011;11497;52.222;21.246;2022-09-12T11:54:20;7.38;;;4.75;;
22660;SDS011;11497;52.222;21.246;2022-09-12T11:59:56;7.80;;;4.63;;
22660;SDS011;11497;52.222;21.246;2022-09-12T12:03:02;7.68;;;4.38;;
22660;SDS011;11497;52.222;21.246;2022-09-12T12:05:54;6.97;;;4.40;;
22660;SDS011;11497;52.222;21.246;2022-09-12T12:08:30;6.25;;;4.38;;
22660;SDS011;11497;52.222;21.246;2022-09-12T12:11:04;7.32;;;5.63;;
22660;SDS011;11497;52.222;21.246;2022-09-12T12:13:56;9.45;;;5.20;;
22660;SDS011;11497;52.222;21.246;2022-09-12T12:18:56;10.10;;;4.80;;
22660;SDS011;11497;52.222;21.246;2022-09-12T12:29:54;8.75;;;4.70;;
22660;SDS011;11497;52.222;21.246;2022-09-12T12:34:31;7.72;;;4.82;;
22660;SDS011;11497;52.222;21.246;2022-09-12T12:47:43;7.20;;;4.72;;
22660;SDS011;11497;52.222;21.246;2022-09-12T12:50:41;10.95;;;5.03;;
22660;SDS011;11497;52.222;21.246;2022-09-12T12:53:18;7.00;;;4.85;;
22660;SDS011;11497;52.222;21.246;2022-09-12T12:55:55;7.07;;;4.43;;
22660;SDS011;11497;52.222;21.246;2022-09-12T13:03:53;10.23;;;4.53;;
22660;SDS011;11497;52.222;21.246;2022-09-12T13:09:21;6.15;;;4.70;;
22660;SDS011;11497;52.222;21.246;2022-09-12T13:14:47;8.32;;;4.72;;
22660;SDS011;11497;52.222;21.246;2022-09-12T13:17:27;8.75;;;5.78;;
22660;SDS011;11497;52.222;21.246;2022-09-12T13:22:56;6.90;;;4.80;;
22660;SDS011;11497;52.222;21.246;2022-09-12T13:30:35;9.70;;;4.55;;
22660;SDS011;11497;52.222;21.246;2022-09-12T13:33:10;7.10;;;4.80;;
22660;SDS011;11497;52.222;21.246;2022-09-12T13:35:56;9.48;;;4.63;;
22660;SDS011;11497;52.222;21.246;2022-09-12T13:41:37;10.13;;;4.35;;
22660;SDS011;11497;52.222;21.246;2022-09-12T13:44:28;13.68;;;4.50;;
22660;SDS011;11497;52.222;21.246;2022-09-12T13:46:58;8.30;;;4.53;;
22660;SDS011;11497;52.222;21.246;2022-09-12T13:49:33;5.22;;;4.60;;
22660;SDS011;11497;52.222;21.246;2022-09-12T13:52:07;8.13;;;4.70;;
22660;SDS011;11497;52.222;21.246;2022-09-12T13:54:49;5.65;;;4.13;;
22660;SDS011;11497;52.222;21.246;2022-09-12T13:57:28;6.00;;;4.40;;
22660;SDS011;11497;52.222;21.246;2022-09-12T14:00:10;7.40;;;5.28;;
22660;SDS011;11497;52.222;21.246;2022-09-12T14:02:48;9.90;;;5.27;;
22660;SDS011;11497;52.222;21.246;2022-09-12T14:05:36;10.55;;;5.05;;
22660;SDS011;11497;52.222;21.246;2022-09-12T14:08:06;7.38;;;4.85;;
22660;SDS011;11497;52.222;21.246;2022-09-12T14:10:37;13.75;;;5.60;;
22660;SDS011;11497;52.222;21.246;2022-09-12T14:13:10;9.23;;;4.70;;
22660;SDS011;11497;52.222;21.246;2022-09-12T14:15:46;7.75;;;5.25;;
22660;SDS011;11497;52.222;21.246;2022-09-12T14:20:53;6.38;;;4.63;;
22660;SDS011;11497;52.222;21.246;2022-09-12T14:26:00;7.40;;;4.75;;
22660;SDS011;11497;52.222;21.246;2022-09-12T14:28:32;7.03;;;4.43;;
22660;SDS011;11497;52.222;21.246;2022-09-12T14:33:39;7.35;;;4.55;;
22660;SDS011;11497;52.222;21.246;2022-09-12T14:36:26;7.75;;;4.90;;
22660;SDS011;11497;52.222;21.246;2022-09-12T14:39:22;6.57;;;5.10;;
22660;SDS011;11497;52.222;21.246;2022-09-12T14:41:51;13.15;;;5.53;;
22660;SDS011;11497;52.222;21.246;2022-09-12T14:44:37;6.47;;;5.40;;
22660;SDS011;11497;52.222;21.246;2022-09-12T14:47:11;8.63;;;5.45;;
22660;SDS011;11497;52.222;21.246;2022-09-12T14:49:44;7.55;;;5.72;;
22660;SDS011;11497;52.222;21.246;2022-09-12T14:52:21;8.43;;;5.20;;
22660;SDS011;11497;52.222;21.246;2022-09-12T14:54:59;6.35;;;5.47;;
22660;SDS011;11497;52.222;21.246;2022-09-12T14:57:31;5.25;;;4.65;;
22660;SDS011;11497;52.222;21.246;2022-09-12T15:00:10;9.30;;;5.00;;
22660;SDS011;11497;52.222;21.246;2022-09-12T15:02:48;7.68;;;5.60;;
22660;SDS011;11497;52.222;21.246;2022-09-12T15:05:18;7.10;;;5.18;;
22660;SDS011;11497;52.222;21.246;2022-09-12T15:07:51;6.28;;;4.55;;
22660;SDS011;11497;52.222;21.246;2022-09-12T15:15:43;10.52;;;5.50;;
22660;SDS011;11497;52.222;21.246;2022-09-12T15:18:13;7.90;;;5.18;;
22660;SDS011;11497;52.222;21.246;2022-09-12T15:20:42;11.15;;;5.35;;
22660;SDS011;11497;52.222;21.246;2022-09-12T15:23:19;7.43;;;5.07;;
22660;SDS011;11497;52.222;21.246;2022-09-12T15:25:52;8.88;;;5.20;;
22660;SDS011;11497;52.222;21.246;2022-09-12T15:28:21;8.00;;;5.40;;
22660;SDS011;11497;52.222;21.246;2022-09-12T15:30:50;7.90;;;5.55;;
22660;SDS011;11497;52.222;21.246;2022-09-12T15:33:21;11.57;;;5.88;;
22660;SDS011;11497;52.222;21.246;2022-09-12T15:35:50;10.25;;;6.10;;
22660;SDS011;11497;52.222;21.246;2022-09-12T15:38:19;7.05;;;5.80;;
22660;SDS011;11497;52.222;21.246;2022-09-12T15:43:21;7.43;;;5.70;;
22660;SDS011;11497;52.222;21.246;2022-09-12T15:45:51;9.90;;;5.82;;
22660;SDS011;11497;52.222;21.246;2022-09-12T15:48:19;6.93;;;6.15;;
22660;SDS011;11497;52.222;21.246;2022-09-12T15:50:47;9.23;;;6.40;;
22660;SDS011;11497;52.222;21.246;2022-09-12T15:53:15;14.18;;;6.00;;
22660;SDS011;11497;52.222;21.246;2022-09-12T15:55:44;8.45;;;5.88;;
22660;SDS011;11497;52.222;21.246;2022-09-12T15:58:12;7.63;;;5.57;;
22660;SDS011;11497;52.222;21.246;2022-09-12T16:00:39;10.00;;;6.25;;
22660;SDS011;11497;52.222;21.246;2022-09-12T16:03:20;11.10;;;6.22;;
22660;SDS011;11497;52.222;21.246;2022-09-12T16:05:49;8.50;;;6.45;;
22660;SDS011;11497;52.222;21.246;2022-09-12T16:08:36;14.85;;;6.90;;
22660;SDS011;11497;52.222;21.246;2022-09-12T16:11:10;10.48;;;6.20;;
22660;SDS011;11497;52.222;21.246;2022-09-12T16:13:50;14.02;;;6.70;;
22660;SDS011;11497;52.222;21.246;2022-09-12T16:16:18;9.57;;;6.80;;
22660;SDS011;11497;52.222;21.246;2022-09-12T16:18:46;7.63;;;6.35;;
22660;SDS011;11497;52.222;21.246;2022-09-12T16:21:15;11.00;;;7.57;;
22660;SDS011;11497;52.222;21.246;2022-09-12T16:23:43;7.68;;;6.28;;
22660;SDS011;11497;52.222;21.246;2022-09-12T16:26:12;12.40;;;6.40;;
22660;SDS011;11497;52.222;21.246;2022-09-12T16:28:40;11.23;;;7.10;;
22660;SDS011;11497;52.222;21.246;2022-09-12T16:31:09;10.35;;;6.88;;
22660;SDS011;11497;52.222;21.246;2022-09-12T16:33:38;8.93;;;6.68;;
22660;SDS011;11497;52.222;21.246;2022-09-12T16:36:11;11.40;;;7.35;;
22660;SDS011;11497;52.222;21.246;2022-09-12T16:38:44;11.25;;;6.95;;
22660;SDS011;11497;52.222;21.246;2022-09-12T16:41:14;13.73;;;8.25;;
22660;SDS011;11497;52.222;21.246;2022-09-12T16:43:44;12.52;;;8.68;;
22660;SDS011;11497;52.222;21.246;2022-09-12T16:46:16;11.73;;;8.73;;
22660;SDS011;11497;52.222;21.246;2022-09-12T16:48:46;11.10;;;8.20;;
22660;SDS011;11497;52.222;21.246;2022-09-12T16:51:19;10.85;;;8.70;;
22660;SDS011;11497;52.222;21.246;2022-09-12T16:53:53;13.15;;;8.07;;
22660;SDS011;11497;52.222;21.246;2022-09-12T16:56:22;10.68;;;8.45;;
22660;SDS011;11497;52.222;21.246;2022-09-12T16:58:50;11.98;;;8.48;;
22660;SDS011;11497;52.222;21.246;2022-09-12T17:01:22;13.40;;;8.85;;
22660;SDS011;11497;52.222;21.246;2022-09-12T17:03:52;15.38;;;9.23;;
22660;SDS011;11497;52.222;21.246;2022-09-12T17:06:24;20.60;;;9.15;;
22660;SDS011;11497;52.222;21.246;2022-09-12T17:08:57;14.43;;;7.40;;
22660;SDS011;11497;52.222;21.246;2022-09-12T17:11:27;10.52;;;6.85;;
22660;SDS011;11497;52.222;21.246;2022-09-12T17:16:37;8.48;;;6.15;;
22660;SDS011;11497;52.222;21.246;2022-09-12T17:19:06;8.23;;;6.28;;
22660;SDS011;11497;52.222;21.246;2022-09-12T17:21:38;10.45;;;6.75;;
22660;SDS011;11497;52.222;21.246;2022-09-12T17:24:05;9.35;;;6.07;;
22660;SDS011;11497;52.222;21.246;2022-09-12T17:26:34;9.07;;;6.55;;
22660;SDS011;11497;52.222;21.246;2022-09-12T17:29:02;10.60;;;7.40;;
22660;SDS011;11497;52.222;21.246;2022-09-12T17:31:30;11.18;;;7.45;;
22660;SDS011;11497;52.222;21.246;2022-09-12T17:33:59;12.10;;;8.07;;
22660;SDS011;11497;52.222;21.246;2022-09-12T17:36:28;11.00;;;7.97;;
22660;SDS011;11497;52.222;21.246;2022-09-12T17:38:57;16.20;;;9.23;;
22660;SDS011;11497;52.222;21.246;2022-09-12T17:41:27;18.13;;;11.38;;
22660;SDS011;11497;52.222;21.246;2022-09-12T17:43:58;17.50;;;12.32;;
22660;SDS011;11497;52.222;21.246;2022-09-12T17:46:30;16.65;;;10.82;;
22660;SDS011;11497;52.222;21.246;2022-09-12T17:49:02;17.25;;;11.75;;
22660;SDS011;11497;52.222;21.246;2022-09-12T17:51:33;15.73;;;12.05;;
22660;SDS011;11497;52.222;21.246;2022-09-12T17:56:32;29.67;;;18.92;;
22660;SDS011;11497;52.222;21.246;2022-09-12T17:59:02;40.08;;;23.05;;
22660;SDS011;11497;52.222;21.246;2022-09-12T18:01:30;32.38;;;21.95;;
22660;SDS011;11497;52.222;21.246;2022-09-12T18:04:17;27.50;;;18.92;;
22660;SDS011;11497;52.222;21.246;2022-09-12T18:06:46;33.08;;;19.92;;
22660;SDS011;11497;52.222;21.246;2022-09-12T18:09:16;34.55;;;21.98;;